createdAt,value
2019-01-11T00:01:24.447Z,7.37
2019-01-11T00:06:36.319Z,6.00
2019-01-11T00:11:48.448Z,6.77
2019-01-11T00:17:00.306Z,4.73
2019-01-11T00:22:10.372Z,7.13
2019-01-11T00:27:29.273Z,8.83
2019-01-11T00:32:40.720Z,6.67
2019-01-11T00:37:52.274Z,6.20
2019-01-11T00:43:04.272Z,5.40
2019-01-11T00:48:16.031Z,6.20
2019-01-11T00:53:27.944Z,5.87
2019-01-11T00:58:39.841Z,7.30
2019-01-11T01:03:40.651Z,6.60
2019-01-11T01:08:40.459Z,5.30
2019-01-11T01:13:52.387Z,5.50
2019-01-11T01:18:52.031Z,7.77
2019-01-11T01:23:51.712Z,6.67
2019-01-11T01:29:03.072Z,4.83
2019-01-11T01:34:14.733Z,4.17
2019-01-11T01:39:26.887Z,5.40
2019-01-11T01:44:38.453Z,4.90
2019-01-11T01:49:50.477Z,5.17
2019-01-11T01:54:51.007Z,6.00
2019-01-11T02:00:28.245Z,4.67
2019-01-11T02:05:47.131Z,4.33
2019-01-11T02:11:18.224Z,3.90
2019-01-11T02:16:30.387Z,5.50
2019-01-11T02:21:41.770Z,3.63
2019-01-11T02:26:53.463Z,6.27
2019-01-11T02:32:05.313Z,2.90
2019-01-11T02:37:17.490Z,5.83
2019-01-11T02:42:28.915Z,3.67
2019-01-11T02:47:41.892Z,3.77
2019-01-11T02:52:54.143Z,4.83
2019-01-11T02:58:05.892Z,6.70
2019-01-11T03:03:17.768Z,3.30
2019-01-11T03:08:29.283Z,3.77
2019-01-11T03:13:41.109Z,4.70
2019-01-11T03:18:53.308Z,4.33
2019-01-11T03:24:04.956Z,4.07
2019-01-11T03:29:16.499Z,5.63
2019-01-11T03:34:28.200Z,3.73
2019-01-11T03:39:40.445Z,4.23
2019-01-11T03:44:52.571Z,4.67
2019-01-11T03:50:04.100Z,4.93
2019-01-11T03:55:16.065Z,5.37
2019-01-11T04:00:28.155Z,4.97
2019-01-11T04:05:40.124Z,7.13
2019-01-11T04:10:52.384Z,5.33
2019-01-11T04:16:04.557Z,8.90
2019-01-11T04:21:16.160Z,7.40
2019-01-11T04:26:27.372Z,6.40
2019-01-11T04:31:39.476Z,6.60
2019-01-11T04:36:51.551Z,7.10
2019-01-11T04:42:03.581Z,4.47
2019-01-11T04:47:15.748Z,9.43
2019-01-11T04:52:27.801Z,7.47
2019-01-11T04:57:39.589Z,6.73
2019-01-11T05:02:51.467Z,9.10
2019-01-11T05:08:03.372Z,7.77
2019-01-11T05:13:34.059Z,10.20
2019-01-11T05:18:45.655Z,9.37
2019-01-11T05:23:57.536Z,12.10
2019-01-11T05:29:09.677Z,12.23
2019-01-11T05:34:21.960Z,14.93
2019-01-11T05:39:33.557Z,11.57
2019-01-11T05:44:45.756Z,13.83
2019-01-11T05:49:57.772Z,14.47
2019-01-11T05:55:11.295Z,16.40
2019-01-11T06:00:22.735Z,17.57
2019-01-11T06:05:34.718Z,21.63
2019-01-11T06:10:46.716Z,22.63
2019-01-11T06:15:58.790Z,18.43
2019-01-11T06:21:10.659Z,20.33
2019-01-11T06:26:22.662Z,17.80
2019-01-11T06:31:34.611Z,30.20
2019-01-11T06:36:46.336Z,20.90
2019-01-11T06:47:28.384Z,24.07
2019-01-11T06:52:40.188Z,23.10
2019-01-11T06:57:52.062Z,17.30
2019-01-11T07:03:05.075Z,19.97
2019-01-11T07:08:17.080Z,17.13
2019-01-11T07:13:28.600Z,25.03
2019-01-11T07:18:40.059Z,19.77
2019-01-11T07:23:52.076Z,25.57
2019-01-11T07:29:04.425Z,18.37
2019-01-11T07:34:16.243Z,22.90
2019-01-11T07:39:29.978Z,22.50
2019-01-11T07:44:41.479Z,22.50
2019-01-11T07:49:53.279Z,19.03
2019-01-11T07:55:05.183Z,18.27
2019-01-11T08:00:16.788Z,15.03
2019-01-11T08:05:28.544Z,27.10
2019-01-11T08:10:40.036Z,19.40
2019-01-11T08:15:51.888Z,18.43
2019-01-11T08:21:03.368Z,20.60
2019-01-11T08:26:14.737Z,16.87
2019-01-11T08:31:26.520Z,20.03
2019-01-11T08:36:37.847Z,19.47
2019-01-11T08:41:49.257Z,9.50
2019-01-11T08:47:00.739Z,19.10
2019-01-11T08:52:16.686Z,10.80
2019-01-11T08:57:28.525Z,16.40
2019-01-11T09:02:40.451Z,14.03
2019-01-11T09:07:52.348Z,15.67
2019-01-11T09:13:04.188Z,19.00
2019-01-11T09:18:30.989Z,15.53
2019-01-11T09:23:30.682Z,18.40
2019-01-11T09:28:49.608Z,15.67
2019-01-11T09:34:01.471Z,18.23
2019-01-11T09:39:13.399Z,14.73
2019-01-11T09:44:25.243Z,18.27
2019-01-11T09:49:37.344Z,21.00
2019-01-11T09:54:47.432Z,16.43
2019-01-11T09:59:59.602Z,14.60
2019-01-11T10:05:11.471Z,14.57
2019-01-11T10:10:23.281Z,15.77
2019-01-11T10:15:35.348Z,13.70
2019-01-11T10:20:49.682Z,22.40
2019-01-11T10:26:01.597Z,11.20
2019-01-11T10:31:01.411Z,11.10
2019-01-11T10:36:20.527Z,11.43
2019-01-11T10:41:32.092Z,10.60
2019-01-11T10:46:49.002Z,11.00
2019-01-11T10:51:57.891Z,6.00
2019-01-11T10:57:09.187Z,6.23
2019-01-11T11:02:21.206Z,10.60
2019-01-11T11:07:32.978Z,4.10
2019-01-11T11:12:44.941Z,5.13
2019-01-11T11:17:56.509Z,2.87
2019-01-11T11:23:07.796Z,2.80
2019-01-11T11:28:20.120Z,2.70
2019-01-11T11:33:32.883Z,3.73
2019-01-11T11:38:44.848Z,6.97
2019-01-11T11:43:56.094Z,1.60
2019-01-11T11:49:08.247Z,0.80
2019-01-11T11:54:20.216Z,0.93
2019-01-11T11:59:31.895Z,1.73
2019-01-11T12:04:43.720Z,3.70
2019-01-11T12:09:55.519Z,1.90
2019-01-11T12:15:07.096Z,2.97
2019-01-11T12:20:18.896Z,1.40
2019-01-11T12:25:31.707Z,1.27
2019-01-11T12:30:43.473Z,1.23
2019-01-11T12:35:55.800Z,1.37
2019-01-11T12:41:07.384Z,0.70
2019-01-11T12:46:19.852Z,1.10
2019-01-11T12:51:32.089Z,0.77
2019-01-11T12:56:44.181Z,4.63
2019-01-11T13:01:55.986Z,1.67
2019-01-11T13:07:07.441Z,2.70
2019-01-11T13:39:56.907Z,1.53
2019-01-11T14:29:10.091Z,11.80
2019-01-11T14:50:37.926Z,14.70
2019-01-11T15:12:20.845Z,7.90
2019-01-11T15:17:33.227Z,9.83
2019-01-11T15:22:47.657Z,11.47
2019-01-11T15:28:01.718Z,21.33
2019-01-11T15:33:13.505Z,9.27
2019-01-11T15:38:25.082Z,10.23
2019-01-11T15:43:37.216Z,21.70
2019-01-11T15:48:49.009Z,24.27
2019-01-11T15:54:00.243Z,17.10
2019-01-11T15:59:19.356Z,31.30
2019-01-11T16:32:18.431Z,15.30
2019-01-11T16:37:29.689Z,23.73
2019-01-11T16:42:29.463Z,24.50
2019-01-11T16:47:48.484Z,13.73
2019-01-11T16:53:00.184Z,19.47
2019-01-11T16:58:11.879Z,31.03
2019-01-11T17:03:11.930Z,23.27
2019-01-11T17:08:30.826Z,33.90
2019-01-11T17:13:42.660Z,18.83
2019-01-11T17:18:53.994Z,38.03
2019-01-11T17:24:05.352Z,17.40
2019-01-11T17:29:17.438Z,42.30
2019-01-11T17:34:28.732Z,42.97
2019-01-11T17:39:40.208Z,23.90
2019-01-11T17:44:39.972Z,43.70
2019-01-11T17:50:01.175Z,15.53
2019-01-11T18:06:19.006Z,35.17
2019-01-11T18:28:29.252Z,34.90
2019-01-11T18:33:40.945Z,14.20
2019-01-11T18:44:22.216Z,17.73
2019-01-11T18:55:01.035Z,29.83
2019-01-11T19:00:13.168Z,43.83
2019-01-11T19:05:25.168Z,33.00
2019-01-11T19:10:37.050Z,40.77
2019-01-11T19:15:48.659Z,49.60
2019-01-11T19:21:00.490Z,34.17
2019-01-11T19:26:12.225Z,44.07
2019-01-11T20:09:30.738Z,32.83
2019-01-11T20:14:45.461Z,55.93
2019-01-11T20:19:57.236Z,37.63
2019-01-11T20:25:09.373Z,28.97
2019-01-11T20:52:30.195Z,44.40
2019-01-11T20:57:42.395Z,40.23
2019-01-11T21:02:54.487Z,25.60
2019-01-11T21:08:06.606Z,41.33
2019-01-11T21:13:18.479Z,29.87
2019-01-11T21:18:18.491Z,36.73
2019-01-11T21:23:37.435Z,60.03
2019-01-11T21:28:49.176Z,25.80
2019-01-11T21:34:01.035Z,33.60
2019-01-11T21:39:13.186Z,42.87
2019-01-11T21:44:13.196Z,33.50
2019-01-11T21:49:32.381Z,31.13
2019-01-11T21:54:44.407Z,51.33
2019-01-11T21:59:56.600Z,21.97
2019-01-11T22:05:08.136Z,36.67
2019-01-11T22:10:20.275Z,32.63
2019-01-11T22:15:32.439Z,15.50
2019-01-11T22:20:43.830Z,9.87
2019-01-11T22:25:55.532Z,25.40
2019-01-11T22:31:06.906Z,24.93
2019-01-11T22:36:19.228Z,56.67
2019-01-11T22:41:30.597Z,46.70
2019-01-11T22:46:42.487Z,33.73
2019-01-11T22:51:54.524Z,28.53
2019-01-11T22:57:06.295Z,19.70
2019-01-11T23:02:18.059Z,31.10
2019-01-11T23:07:29.388Z,36.00
2019-01-11T23:12:41.194Z,22.70
2019-01-11T23:17:57.478Z,28.63
2019-01-11T23:23:16.460Z,23.03
2019-01-11T23:28:28.015Z,30.83
2019-01-11T23:33:39.756Z,24.93
2019-01-11T23:38:51.728Z,21.63
2019-01-11T23:44:03.399Z,24.30
2019-01-11T23:49:15.295Z,23.83
2019-01-11T23:54:26.930Z,27.80
2019-01-11T23:59:36.926Z,24.83
